Terminal Aerodrome Forecast
Issued by NWS

Home | Current Version | Previous Version | Text Only | Print | Product List | Glossary On
Versions: 1 2 3 4 5 6 7 8 9 10 11 12 13 14 15 16 17 18
000
FTUS43 KGRR 192300 RRA
TAFBTL
TAF
KBTL 192348Z 2000/2024 10010G18KT 6SM -RA OVC050
     FM200130 10010G20KT 3SM -RA BR OVC025
     FM200400 12010G18KT 3SM -RA BR OVC007
     FM200700 20011KT 3SM -DZ BR VCSH OVC003
     FM201400 23011G21KT 4SM -DZ BR OVC006
     FM202000 25014G25KT P6SM VCSH OVC008=

USA.gov is the U.S. government's official web portal to all federal, state and local government web resources and services.